Time;durP1;ratioP1;P1;durP2;ratioP2;P2;SDS_P1;SDS_P2;PMS_P1;PMS_P2;Temp;Humidity;BMP_temperature;BMP_pressure;BME280_temperature;BME280_humidity;BME280_pressure;Samples;Min_cycle;Max_cycle;Signal;HPM_P1;HPM_P2
2023/09/25 00:00:30;;;;;;;2.13;1.53;;;;;;;;;;5100969;27;20220;-73
2023/09/25 00:02:57;;;;;;;2.90;1.30;;;;;;;;;;5095101;28;20198;-73
2023/09/25 00:05:25;;;;;;;2.10;1.30;;;;;;;;;;5098034;27;20251;-71
2023/09/25 00:07:52;;;;;;;1.97;1.60;;;;;;;;;;5099401;27;20212;-73
2023/09/25 00:10:19;;;;;;;1.63;1.53;;;;;;;;;;5100569;27;20205;-73
2023/09/25 00:12:47;;;;;;;1.97;1.67;;;;;;;;;;5094973;27;20198;-72
2023/09/25 00:15:15;;;;;;;1.67;1.57;;;;;;;;;;5098480;27;20193;-73
2023/09/25 00:17:43;;;;;;;2.30;1.40;;;;;;;;;;5100595;28;20224;-73
2023/09/25 00:20:11;;;;;;;2.30;1.50;;;;;;;;;;5098943;27;20212;-73
2023/09/25 00:22:39;;;;;;;1.37;1.27;;;;;;;;;;5104080;27;20202;-73
2023/09/25 00:25:07;;;;;;;1.90;1.50;;;;;;;;;;5100947;28;20198;-73
2023/09/25 00:27:34;;;;;;;1.83;1.30;;;;;;;;;;5105066;27;20243;-73
2023/09/25 00:30:06;;;;;;;1.67;1.23;;;;;;;;;;5094805;27;20190;-73
2023/09/25 00:32:34;;;;;;;1.67;1.40;;;;;;;;;;5095172;27;20309;-74
2023/09/25 00:35:01;;;;;;;1.70;1.40;;;;;;;;;;5093846;27;20198;-73
2023/09/25 00:37:29;;;;;;;1.43;1.33;;;;;;;;;;5094532;28;20225;-74
2023/09/25 00:39:57;;;;;;;3.37;1.40;;;;;;;;;;5095318;28;20281;-72
2023/09/25 00:42:24;;;;;;;1.50;1.40;;;;;;;;;;5095245;27;20202;-71
2023/09/25 00:44:51;;;;;;;1.57;1.47;;;;;;;;;;5098081;27;20205;-73
2023/09/25 00:47:20;;;;;;;2.73;1.70;;;;;;;;;;5095462;27;20212;-73
2023/09/25 00:49:47;;;;;;;2.07;1.40;;;;;;;;;;5095963;28;20209;-73
2023/09/25 00:52:14;;;;;;;1.77;1.40;;;;;;;;;;5104042;27;20254;-70
2023/09/25 00:54:42;;;;;;;3.43;1.70;;;;;;;;;;5102381;27;20205;-72
2023/09/25 00:57:09;;;;;;;1.60;1.50;;;;;;;;;;5100370;27;20200;-73
2023/09/25 00:59:37;;;;;;;1.63;1.53;;;;;;;;;;5094988;27;20213;-71
2023/09/25 01:02:04;;;;;;;1.57;1.47;;;;;;;;;;5095838;27;20210;-73
2023/09/25 01:04:33;;;;;;;1.60;1.50;;;;;;;;;;5101829;27;20209;-72
2023/09/25 01:07:00;;;;;;;1.83;1.57;;;;;;;;;;5092735;27;20198;-73
2023/09/25 01:09:27;;;;;;;1.57;1.47;;;;;;;;;;5097430;27;20209;-74
2023/09/25 01:11:54;;;;;;;2.63;1.60;;;;;;;;;;5098945;27;20197;-73
2023/09/25 01:14:22;;;;;;;2.87;1.40;;;;;;;;;;5098397;28;20209;-73
2023/09/25 01:16:49;;;;;;;2.37;1.53;;;;;;;;;;5096486;28;20194;-73
2023/09/25 01:19:16;;;;;;;1.90;1.33;;;;;;;;;;5104479;27;20201;-73
2023/09/25 01:21:46;;;;;;;1.60;1.33;;;;;;;;;;5097215;28;20190;-73
2023/09/25 01:24:13;;;;;;;1.93;1.47;;;;;;;;;;5100362;28;20217;-74
2023/09/25 01:26:40;;;;;;;2.13;1.63;;;;;;;;;;5097883;27;20225;-74
2023/09/25 01:29:08;;;;;;;1.87;1.70;;;;;;;;;;5096846;28;20243;-73
2023/09/25 01:31:35;;;;;;;2.80;1.67;;;;;;;;;;5097477;27;20238;-73
2023/09/25 01:34:03;;;;;;;1.70;1.60;;;;;;;;;;5096566;27;20188;-73
2023/09/25 01:36:30;;;;;;;1.63;1.30;;;;;;;;;;5100259;27;20198;-71
2023/09/25 01:38:58;;;;;;;1.73;1.40;;;;;;;;;;5097337;28;20297;-73
2023/09/25 01:41:25;;;;;;;1.50;1.40;;;;;;;;;;5096828;28;20205;-73
2023/09/25 01:43:52;;;;;;;1.63;1.53;;;;;;;;;;5101301;28;20205;-73
2023/09/25 01:46:20;;;;;;;1.60;1.43;;;;;;;;;;5096382;28;20208;-74
2023/09/25 01:48:49;;;;;;;1.60;1.50;;;;;;;;;;5092310;28;20314;-73
2023/09/25 01:51:16;;;;;;;1.60;1.50;;;;;;;;;;5093757;28;20197;-74
2023/09/25 01:53:45;;;;;;;1.90;1.60;;;;;;;;;;5095970;28;20197;-74
2023/09/25 01:56:14;;;;;;;1.80;1.33;;;;;;;;;;5095429;28;20195;-73
2023/09/25 01:58:42;;;;;;;2.17;1.53;;;;;;;;;;5093868;28;20232;-73
2023/09/25 02:01:09;;;;;;;1.50;1.40;;;;;;;;;;5091638;28;20272;-73
2023/09/25 02:03:36;;;;;;;1.83;1.50;;;;;;;;;;5092095;28;20226;-72
2023/09/25 02:06:04;;;;;;;1.90;1.60;;;;;;;;;;5099274;28;20498;-74
2023/09/25 02:08:31;;;;;;;1.70;1.60;;;;;;;;;;5095234;28;20205;-73
2023/09/25 02:10:58;;;;;;;1.87;1.63;;;;;;;;;;5095684;28;20280;-74
2023/09/25 02:13:26;;;;;;;1.60;1.50;;;;;;;;;;5100973;28;20190;-74
2023/09/25 02:15:54;;;;;;;1.80;1.50;;;;;;;;;;5100113;28;20525;-74
2023/09/25 02:18:22;;;;;;;3.43;1.70;;;;;;;;;;5101502;28;20195;-74
2023/09/25 02:20:49;;;;;;;2.53;1.50;;;;;;;;;;5090635;28;20236;-72
2023/09/25 02:23:16;;;;;;;1.93;1.60;;;;;;;;;;5102311;28;20594;-74
2023/09/25 02:25:43;;;;;;;1.70;1.60;;;;;;;;;;5101863;28;20206;-74
2023/09/25 02:28:11;;;;;;;2.10;1.90;;;;;;;;;;5088880;28;20212;-74
2023/09/25 02:30:39;;;;;;;2.27;1.70;;;;;;;;;;5098771;28;20230;-74
2023/09/25 02:33:06;;;;;;;1.73;1.63;;;;;;;;;;5101295;27;20194;-73
2023/09/25 02:35:33;;;;;;;2.00;1.80;;;;;;;;;;5100064;28;20416;-74
2023/09/25 02:38:00;;;;;;;1.63;1.53;;;;;;;;;;5098146;28;20201;-74
2023/09/25 02:40:27;;;;;;;3.13;1.67;;;;;;;;;;5102923;27;20214;-74
2023/09/25 02:42:54;;;;;;;2.10;1.40;;;;;;;;;;5098901;27;20204;-74
2023/09/25 02:45:22;;;;;;;2.90;1.60;;;;;;;;;;5093197;27;20296;-74
2023/09/25 02:47:50;;;;;;;1.93;1.67;;;;;;;;;;5095264;27;20212;-74
2023/09/25 02:50:18;;;;;;;1.80;1.70;;;;;;;;;;5094904;27;20190;-74
2023/09/25 02:52:45;;;;;;;2.00;1.80;;;;;;;;;;5104805;27;20201;-74
2023/09/25 02:55:13;;;;;;;1.90;1.67;;;;;;;;;;5099739;27;20198;-74
2023/09/25 02:57:40;;;;;;;1.40;1.30;;;;;;;;;;5101780;27;20194;-74
2023/09/25 03:00:11;;;;;;;2.47;1.80;;;;;;;;;;5094397;28;20202;-74
2023/09/25 03:02:38;;;;;;;1.50;1.40;;;;;;;;;;5100973;27;20197;-72
2023/09/25 03:05:07;;;;;;;3.13;1.50;;;;;;;;;;5104278;27;20193;-73
2023/09/25 03:07:34;;;;;;;2.20;1.70;;;;;;;;;;5098140;27;20194;-73
2023/09/25 03:10:02;;;;;;;2.97;1.40;;;;;;;;;;5103657;27;20194;-74
2023/09/25 03:12:30;;;;;;;2.57;1.47;;;;;;;;;;5100739;27;20213;-74
2023/09/25 03:14:57;;;;;;;2.97;1.60;;;;;;;;;;5097015;27;20190;-74
2023/09/25 03:17:24;;;;;;;1.87;1.77;;;;;;;;;;5100197;27;20218;-74
2023/09/25 03:19:52;;;;;;;1.70;1.60;;;;;;;;;;5100573;27;20231;-72
2023/09/25 03:22:20;;;;;;;2.23;1.50;;;;;;;;;;5100984;28;20194;-74
2023/09/25 03:24:48;;;;;;;1.50;1.40;;;;;;;;;;5098043;27;20198;-73
2023/09/25 03:27:15;;;;;;;1.73;1.60;;;;;;;;;;5106272;27;20200;-74
2023/09/25 03:29:42;;;;;;;2.30;1.47;;;;;;;;;;5101969;27;20189;-73
2023/09/25 03:32:10;;;;;;;2.50;1.57;;;;;;;;;;5100170;27;20225;-74
2023/09/25 03:34:38;;;;;;;1.87;1.77;;;;;;;;;;5098282;27;20260;-74
2023/09/25 03:37:05;;;;;;;4.00;1.70;;;;;;;;;;5099803;27;20193;-74
2023/09/25 03:39:34;;;;;;;2.33;1.60;;;;;;;;;;5099644;27;20203;-74
2023/09/25 03:42:01;;;;;;;1.40;1.30;;;;;;;;;;5096917;27;20202;-74
2023/09/25 03:44:28;;;;;;;2.50;1.67;;;;;;;;;;5100574;27;20215;-73
2023/09/25 03:46:55;;;;;;;1.93;1.50;;;;;;;;;;5103135;27;20205;-74
2023/09/25 03:49:22;;;;;;;1.53;1.40;;;;;;;;;;5096514;28;20194;-74
2023/09/25 03:51:49;;;;;;;1.50;1.40;;;;;;;;;;5093806;27;20227;-74
2023/09/25 03:54:16;;;;;;;2.73;1.47;;;;;;;;;;5095267;27;20194;-74
2023/09/25 03:56:45;;;;;;;1.60;1.50;;;;;;;;;;5097691;27;20204;-73
2023/09/25 03:59:12;;;;;;;1.60;1.47;;;;;;;;;;5095065;27;20289;-73
2023/09/25 04:01:39;;;;;;;2.80;1.80;;;;;;;;;;5097315;27;20200;-74
2023/09/25 04:04:07;;;;;;;1.87;1.60;;;;;;;;;;5095320;27;20198;-74
2023/09/25 04:06:34;;;;;;;1.60;1.50;;;;;;;;;;5098553;27;20243;-73
2023/09/25 04:09:01;;;;;;;1.77;1.53;;;;;;;;;;5097519;27;20291;-74
2023/09/25 04:11:28;;;;;;;1.50;1.40;;;;;;;;;;5097576;27;20252;-73
2023/09/25 04:13:57;;;;;;;2.20;1.17;;;;;;;;;;5099678;27;20237;-74
2023/09/25 04:16:24;;;;;;;1.63;1.40;;;;;;;;;;5097584;27;20198;-73
2023/09/25 04:18:52;;;;;;;1.60;1.50;;;;;;;;;;5098292;27;20212;-74
2023/09/25 04:21:19;;;;;;;4.13;1.47;;;;;;;;;;5097560;27;20210;-73
2023/09/25 04:23:46;;;;;;;1.90;1.47;;;;;;;;;;5102220;27;20198;-74
2023/09/25 04:26:13;;;;;;;2.17;1.47;;;;;;;;;;5091451;27;20194;-74
2023/09/25 04:28:41;;;;;;;1.80;1.40;;;;;;;;;;5100869;28;20204;-72
2023/09/25 04:31:10;;;;;;;2.10;1.40;;;;;;;;;;5095712;27;20226;-74
2023/09/25 04:33:38;;;;;;;2.13;1.57;;;;;;;;;;5096185;28;20296;-73
2023/09/25 04:36:09;;;;;;;1.57;1.43;;;;;;;;;;5098301;27;20285;-74
2023/09/25 04:38:37;;;;;;;1.70;1.60;;;;;;;;;;5098137;28;20198;-73
2023/09/25 04:41:04;;;;;;;2.20;1.50;;;;;;;;;;5094198;27;20212;-74
2023/09/25 04:43:32;;;;;;;1.77;1.57;;;;;;;;;;5102278;28;20637;-73
2023/09/25 04:46:00;;;;;;;1.80;1.70;;;;;;;;;;5095629;28;20205;-74
2023/09/25 04:48:30;;;;;;;3.13;1.73;;;;;;;;;;5096282;27;20235;-73
2023/09/25 04:50:57;;;;;;;2.00;1.50;;;;;;;;;;5097958;27;20190;-67
2023/09/25 04:53:24;;;;;;;1.50;1.40;;;;;;;;;;5097492;27;20199;-67
2023/09/25 04:55:52;;;;;;;2.47;1.50;;;;;;;;;;5096461;28;20215;-67
2023/09/25 04:58:20;;;;;;;1.70;1.50;;;;;;;;;;5099935;27;20203;-67
2023/09/25 05:00:48;;;;;;;1.90;1.70;;;;;;;;;;5097547;27;20543;-67
2023/09/25 05:03:15;;;;;;;1.67;1.57;;;;;;;;;;5096126;27;20224;-68
2023/09/25 05:05:43;;;;;;;1.87;1.60;;;;;;;;;;5092838;27;20202;-68
2023/09/25 05:08:10;;;;;;;3.47;2.20;;;;;;;;;;5095126;28;20201;-67
2023/09/25 05:10:37;;;;;;;2.60;2.40;;;;;;;;;;5095083;28;20220;-67
2023/09/25 05:13:05;;;;;;;2.33;2.13;;;;;;;;;;5094533;28;20193;-67
2023/09/25 05:15:32;;;;;;;2.30;2.10;;;;;;;;;;5101209;28;20193;-67
2023/09/25 05:17:59;;;;;;;1.73;1.63;;;;;;;;;;5095046;28;20213;-67
2023/09/25 05:20:26;;;;;;;2.53;1.70;;;;;;;;;;5097768;27;20210;-67
2023/09/25 05:22:55;;;;;;;1.80;1.70;;;;;;;;;;5098553;27;20288;-67
2023/09/25 05:25:22;;;;;;;2.60;1.80;;;;;;;;;;5099055;28;20290;-68
2023/09/25 05:27:50;;;;;;;2.07;1.87;;;;;;;;;;5097387;28;20213;-67
2023/09/25 05:30:18;;;;;;;2.23;2.03;;;;;;;;;;5096909;28;20204;-67
2023/09/25 05:32:45;;;;;;;1.97;1.77;;;;;;;;;;5092940;28;20302;-68
2023/09/25 05:35:13;;;;;;;1.80;1.70;;;;;;;;;;5087250;27;20201;-68
2023/09/25 05:37:41;;;;;;;1.87;1.60;;;;;;;;;;5096454;28;20202;-67
2023/09/25 05:40:12;;;;;;;1.50;1.40;;;;;;;;;;5097486;28;20225;-68
2023/09/25 05:42:43;;;;;;;1.97;1.77;;;;;;;;;;5105108;28;20257;-68
2023/09/25 05:45:12;;;;;;;2.90;2.10;;;;;;;;;;5096411;28;20429;-68
2023/09/25 05:47:39;;;;;;;2.17;1.80;;;;;;;;;;5095323;28;20194;-68
2023/09/25 05:50:08;;;;;;;2.30;1.60;;;;;;;;;;5097349;28;20194;-68
2023/09/25 05:52:35;;;;;;;1.70;1.60;;;;;;;;;;5095196;28;20293;-67
2023/09/25 05:55:02;;;;;;;1.60;1.50;;;;;;;;;;5095546;28;20197;-67
2023/09/25 05:57:31;;;;;;;4.03;2.07;;;;;;;;;;5105992;28;20201;-68
2023/09/25 05:59:59;;;;;;;1.80;1.63;;;;;;;;;;5103709;28;20276;-69
2023/09/25 06:02:27;;;;;;;1.70;1.60;;;;;;;;;;5093396;28;20213;-68
2023/09/25 06:04:54;;;;;;;2.37;1.60;;;;;;;;;;5093490;28;20213;-70
2023/09/25 06:07:21;;;;;;;2.17;1.87;;;;;;;;;;5095371;27;20201;-70
2023/09/25 06:09:49;;;;;;;3.00;2.10;;;;;;;;;;5099045;27;20194;-69
2023/09/25 06:12:16;;;;;;;1.83;1.60;;;;;;;;;;5095952;27;20202;-69
2023/09/25 06:14:44;;;;;;;1.97;1.77;;;;;;;;;;5101829;28;20498;-68
2023/09/25 06:17:12;;;;;;;2.40;1.50;;;;;;;;;;5099481;28;20210;-69
2023/09/25 06:19:39;;;;;;;1.63;1.30;;;;;;;;;;5103867;27;20200;-69
2023/09/25 06:22:06;;;;;;;1.63;1.50;;;;;;;;;;5104269;27;20293;-69
2023/09/25 06:24:33;;;;;;;1.67;1.57;;;;;;;;;;5101365;27;20270;-69
2023/09/25 06:27:00;;;;;;;1.80;1.63;;;;;;;;;;5108754;28;20197;-69
2023/09/25 06:29:28;;;;;;;1.90;1.60;;;;;;;;;;5103709;28;20209;-69
2023/09/25 06:31:56;;;;;;;1.93;1.80;;;;;;;;;;5101487;28;20232;-69
2023/09/25 06:34:23;;;;;;;2.57;1.57;;;;;;;;;;5108514;27;20324;-69
2023/09/25 06:36:51;;;;;;;2.10;1.90;;;;;;;;;;5104881;28;20197;-69
2023/09/25 06:39:18;;;;;;;1.50;1.40;;;;;;;;;;5129962;27;20286;-69
2023/09/25 06:41:46;;;;;;;2.43;1.70;;;;;;;;;;5100626;28;20293;-69
2023/09/25 06:44:13;;;;;;;1.60;1.50;;;;;;;;;;5097698;28;20202;-69
2023/09/25 06:46:41;;;;;;;4.10;1.63;;;;;;;;;;5102771;27;20210;-68
2023/09/25 06:49:09;;;;;;;1.93;1.70;;;;;;;;;;5098299;27;20198;-69
2023/09/25 06:51:36;;;;;;;2.30;1.77;;;;;;;;;;5105372;27;20194;-69
2023/09/25 06:54:04;;;;;;;2.30;1.77;;;;;;;;;;5102764;28;20205;-68
2023/09/25 06:56:31;;;;;;;3.07;1.80;;;;;;;;;;5104220;28;20194;-68
2023/09/25 06:58:59;;;;;;;2.07;1.70;;;;;;;;;;5102529;28;20198;-68
2023/09/25 07:01:26;;;;;;;2.00;1.80;;;;;;;;;;5105202;27;20211;-68
2023/09/25 07:03:53;;;;;;;2.07;1.80;;;;;;;;;;5101354;27;20204;-67
2023/09/25 07:06:21;;;;;;;2.33;1.73;;;;;;;;;;5097198;27;20201;-68
2023/09/25 07:08:49;;;;;;;1.80;1.70;;;;;;;;;;5100628;27;20202;-68
2023/09/25 07:11:19;;;;;;;1.90;1.70;;;;;;;;;;5108243;28;20213;-68
2023/09/25 07:13:46;;;;;;;2.97;1.60;;;;;;;;;;5109183;28;20230;-68
2023/09/25 07:16:13;;;;;;;2.23;1.70;;;;;;;;;;5104369;28;20193;-67
2023/09/25 07:18:40;;;;;;;1.50;1.40;;;;;;;;;;5100350;27;20206;-67
2023/09/25 07:21:08;;;;;;;2.60;1.60;;;;;;;;;;5101491;28;20217;-67
2023/09/25 07:23:37;;;;;;;1.40;1.30;;;;;;;;;;5106910;27;20207;-68
2023/09/25 07:26:07;;;;;;;1.63;1.53;;;;;;;;;;5095978;28;20213;-67
2023/09/25 07:28:34;;;;;;;2.87;1.80;;;;;;;;;;5101380;27;20288;-68
2023/09/25 07:31:01;;;;;;;1.70;1.50;;;;;;;;;;5102778;27;20283;-67
2023/09/25 07:33:29;;;;;;;2.23;1.70;;;;;;;;;;5098223;28;20349;-67
2023/09/25 07:35:57;;;;;;;1.70;1.60;;;;;;;;;;5102656;28;20206;-67
2023/09/25 07:38:24;;;;;;;2.57;1.70;;;;;;;;;;5098267;28;20255;-66
2023/09/25 07:40:53;;;;;;;1.93;1.70;;;;;;;;;;5100857;27;20251;-67
2023/09/25 07:43:23;;;;;;;1.93;1.70;;;;;;;;;;5101012;28;20257;-67
2023/09/25 07:45:50;;;;;;;3.40;1.70;;;;;;;;;;5096980;28;20202;-67
2023/09/25 07:48:17;;;;;;;1.77;1.67;;;;;;;;;;5099821;28;20229;-66
2023/09/25 07:50:46;;;;;;;2.00;1.90;;;;;;;;;;5102970;27;20226;-67
2023/09/25 07:53:13;;;;;;;2.50;1.97;;;;;;;;;;5103172;28;20223;-67
2023/09/25 07:55:40;;;;;;;3.17;1.70;;;;;;;;;;5098492;28;20206;-66
2023/09/25 07:58:11;;;;;;;2.80;1.80;;;;;;;;;;5100202;28;20202;-67
2023/09/25 08:00:40;;;;;;;1.70;1.60;;;;;;;;;;5095741;28;20208;-66
2023/09/25 08:03:08;;;;;;;1.90;1.80;;;;;;;;;;5096900;28;20227;-66
2023/09/25 08:05:36;;;;;;;2.03;1.90;;;;;;;;;;5097905;28;20194;-66
2023/09/25 08:08:03;;;;;;;2.57;1.93;;;;;;;;;;5097391;27;20285;-66
2023/09/25 08:10:30;;;;;;;2.00;1.70;;;;;;;;;;5100033;28;20198;-66
2023/09/25 08:12:57;;;;;;;2.10;1.60;;;;;;;;;;5101618;27;20201;-66
2023/09/25 08:15:27;;;;;;;4.60;1.67;;;;;;;;;;5100881;27;20225;-66
2023/09/25 08:17:54;;;;;;;2.00;1.40;;;;;;;;;;5100626;28;20226;-66
2023/09/25 08:20:22;;;;;;;2.93;1.60;;;;;;;;;;5105688;28;20193;-67
2023/09/25 08:22:49;;;;;;;1.73;1.53;;;;;;;;;;5100067;27;20328;-66
2023/09/25 08:25:17;;;;;;;1.60;1.50;;;;;;;;;;5099068;27;20206;-66
2023/09/25 08:27:44;;;;;;;1.50;1.40;;;;;;;;;;5099109;27;20255;-66
2023/09/25 08:30:13;;;;;;;1.60;1.50;;;;;;;;;;5098455;28;20209;-67
2023/09/25 08:32:41;;;;;;;2.88;1.42;;;;;;;;;;5098788;27;20198;-66
2023/09/25 08:35:09;;;;;;;1.45;1.35;;;;;;;;;;5101594;28;20194;-67
2023/09/25 08:37:38;;;;;;;2.25;1.30;;;;;;;;;;5101551;27;20207;-66
2023/09/25 08:40:06;;;;;;;1.88;1.58;;;;;;;;;;5098131;28;20205;-66
2023/09/25 08:42:33;;;;;;;2.15;1.50;;;;;;;;;;5103464;28;20236;-66
2023/09/25 08:45:04;;;;;;;2.47;1.40;;;;;;;;;;5101258;27;20229;-66
2023/09/25 08:47:34;;;;;;;2.55;1.60;;;;;;;;;;5100722;27;20274;-67
2023/09/25 08:50:03;;;;;;;1.70;1.40;;;;;;;;;;5101124;27;20258;-67
2023/09/25 08:52:32;;;;;;;2.78;1.77;;;;;;;;;;5100291;28;20206;-67
2023/09/25 08:55:00;;;;;;;2.17;1.20;;;;;;;;;;5099188;27;20344;-66
2023/09/25 08:57:27;;;;;;;1.70;1.40;;;;;;;;;;5098530;27;20189;-66
2023/09/25 08:59:54;;;;;;;2.67;1.58;;;;;;;;;;5102853;27;20210;-66
2023/09/25 09:02:22;;;;;;;1.35;1.25;;;;;;;;;;5100969;27;20215;-66
2023/09/25 09:04:49;;;;;;;1.83;1.55;;;;;;;;;;5096538;27;20288;-68
2023/09/25 09:07:18;;;;;;;1.70;1.60;;;;;;;;;;5094328;28;20196;-67
2023/09/25 09:09:46;;;;;;;2.78;1.55;;;;;;;;;;5096687;28;20213;-65
2023/09/25 09:12:13;;;;;;;1.88;1.35;;;;;;;;;;5099569;28;20193;-66
2023/09/25 09:14:40;;;;;;;1.40;1.30;;;;;;;;;;5095393;28;20340;-66
2023/09/25 09:17:09;;;;;;;1.63;1.35;;;;;;;;;;5102681;27;20198;-67
2023/09/25 09:19:37;;;;;;;2.63;1.70;;;;;;;;;;5101913;28;20194;-66
2023/09/25 09:22:06;;;;;;;1.42;1.33;;;;;;;;;;5101072;27;20213;-67
2023/09/25 09:24:35;;;;;;;1.90;1.67;;;;;;;;;;5098804;28;20248;-67
2023/09/25 09:27:07;;;;;;;3.60;1.20;;;;;;;;;;5103339;28;20632;-68
2023/09/25 09:29:36;;;;;;;1.98;1.70;;;;;;;;;;5097305;28;20217;-74
2023/09/25 09:32:03;;;;;;;2.45;1.80;;;;;;;;;;5096005;28;20225;-73
2023/09/25 09:34:31;;;;;;;1.80;1.70;;;;;;;;;;5093893;28;20192;-72
2023/09/25 09:36:58;;;;;;;3.08;1.65;;;;;;;;;;5093357;28;20197;-72
2023/09/25 09:39:26;;;;;;;2.10;1.48;;;;;;;;;;5101028;27;20207;-72
2023/09/25 09:41:55;;;;;;;2.55;1.38;;;;;;;;;;5096138;28;20210;-73
2023/09/25 09:44:22;;;;;;;3.53;1.50;;;;;;;;;;5101797;28;20228;-73
2023/09/25 09:46:51;;;;;;;1.40;1.30;;;;;;;;;;5097287;28;20202;-72
2023/09/25 09:49:20;;;;;;;1.67;1.58;;;;;;;;;;5095023;28;20198;-72
2023/09/25 09:51:49;;;;;;;1.52;1.42;;;;;;;;;;5100266;28;20204;-73
2023/09/25 09:54:18;;;;;;;1.58;1.48;;;;;;;;;;5096851;28;20209;-72
2023/09/25 09:56:47;;;;;;;2.10;1.42;;;;;;;;;;5096618;28;20202;-72
2023/09/25 09:59:16;;;;;;;1.77;1.52;;;;;;;;;;5096147;28;20259;-72
2023/09/25 10:01:45;;;;;;;1.70;1.60;;;;;;;;;;5100510;28;20214;-73
2023/09/25 10:04:12;;;;;;;1.45;1.35;;;;;;;;;;5097526;28;20212;-74
2023/09/25 10:06:44;;;;;;;1.50;1.40;;;;;;;;;;5095707;28;20275;-72
2023/09/25 10:09:14;;;;;;;1.60;1.50;;;;;;;;;;5098776;28;20194;-72
2023/09/25 10:11:43;;;;;;;1.80;1.50;;;;;;;;;;5097333;28;20240;-72
2023/09/25 10:14:11;;;;;;;1.83;1.70;;;;;;;;;;5097924;28;20195;-71
2023/09/25 10:17:08;;;;;;;1.92;1.40;;;;;;;;;;5098781;28;20201;-72
2023/09/25 10:19:54;;;;;;;1.55;1.45;;;;;;;;;;5077270;28;20195;-71
2023/09/25 10:22:24;;;;;;;2.33;1.60;;;;;;;;;;5092511;28;20225;-72
2023/09/25 10:25:01;;;;;;;2.13;1.60;;;;;;;;;;5095975;28;20198;-72
2023/09/25 10:27:31;;;;;;;1.20;1.13;;;;;;;;;;5101084;28;20200;-72
2023/09/25 10:30:11;;;;;;;1.40;1.30;;;;;;;;;;5097344;28;20212;-72
2023/09/25 10:32:40;;;;;;;1.75;1.40;;;;;;;;;;5059619;28;20420;-72
2023/09/25 10:35:26;;;;;;;1.50;1.40;;;;;;;;;;5080805;28;20288;-72
2023/09/25 10:38:09;;;;;;;1.77;1.30;;;;;;;;;;5061812;28;20290;-71
2023/09/25 10:40:37;;;;;;;3.28;1.45;;;;;;;;;;5073988;28;20210;-71
2023/09/25 10:43:04;;;;;;;3.60;1.70;;;;;;;;;;5080396;28;20251;-70
2023/09/25 10:45:35;;;;;;;1.77;1.60;;;;;;;;;;5076611;28;20202;-71
2023/09/25 10:48:02;;;;;;;2.03;1.40;;;;;;;;;;5075280;28;20195;-71
2023/09/25 10:50:30;;;;;;;1.40;1.30;;;;;;;;;;5081054;28;20201;-70
2023/09/25 10:52:58;;;;;;;1.60;1.50;;;;;;;;;;5079120;28;20199;-72
2023/09/25 10:55:26;;;;;;;2.47;1.50;;;;;;;;;;5080948;28;20213;-71
2023/09/25 10:57:54;;;;;;;3.22;1.38;;;;;;;;;;5086658;28;20522;-71
2023/09/25 11:00:21;;;;;;;2.00;1.30;;;;;;;;;;5086271;28;20201;-71
2023/09/25 11:02:49;;;;;;;3.00;1.58;;;;;;;;;;5083202;28;20230;-71
2023/09/25 11:05:17;;;;;;;1.30;1.20;;;;;;;;;;5083905;28;20198;-71
2023/09/25 11:07:45;;;;;;;1.30;1.20;;;;;;;;;;5076984;28;20198;-71
2023/09/25 11:10:13;;;;;;;1.83;1.35;;;;;;;;;;5081761;28;20191;-70
2023/09/25 11:12:42;;;;;;;2.65;1.30;;;;;;;;;;5080376;28;20225;-71
2023/09/25 11:15:12;;;;;;;1.60;1.50;;;;;;;;;;5082330;28;20206;-69
2023/09/25 11:17:40;;;;;;;1.20;1.10;;;;;;;;;;5080379;28;20202;-69
2023/09/25 11:20:11;;;;;;;2.13;1.40;;;;;;;;;;5076410;28;20238;-71
2023/09/25 11:22:39;;;;;;;1.38;1.20;;;;;;;;;;5079904;28;20228;-70
2023/09/25 11:25:12;;;;;;;1.27;1.10;;;;;;;;;;5083260;28;20261;-70
2023/09/25 11:27:52;;;;;;;2.08;1.58;;;;;;;;;;5074592;28;20230;-71
2023/09/25 11:30:20;;;;;;;1.92;1.50;;;;;;;;;;5076774;28;20279;-71
2023/09/25 11:32:47;;;;;;;2.05;1.60;;;;;;;;;;5101045;27;20205;-71
2023/09/25 11:35:18;;;;;;;1.67;1.35;;;;;;;;;;5101097;27;20208;-71
2023/09/25 11:37:55;;;;;;;1.13;1.10;;;;;;;;;;5095308;27;20202;-70
2023/09/25 11:40:23;;;;;;;2.15;1.20;;;;;;;;;;5095569;27;20203;-71
2023/09/25 11:42:52;;;;;;;1.75;1.40;;;;;;;;;;5097589;28;20214;-70
2023/09/25 11:45:20;;;;;;;1.40;1.30;;;;;;;;;;5098150;27;20231;-71
2023/09/25 11:47:47;;;;;;;1.50;1.40;;;;;;;;;;5099887;27;20194;-71
2023/09/25 11:50:16;;;;;;;1.75;1.48;;;;;;;;;;5096787;27;20199;-66
2023/09/25 11:52:43;;;;;;;2.90;1.35;;;;;;;;;;5099827;27;20193;-65
2023/09/25 11:55:11;;;;;;;1.80;1.25;;;;;;;;;;5102778;27;20204;-66
2023/09/25 11:57:41;;;;;;;1.58;1.48;;;;;;;;;;5103696;27;20197;-64
2023/09/25 12:00:10;;;;;;;1.60;1.50;;;;;;;;;;5098855;27;20213;-63
2023/09/25 12:02:38;;;;;;;3.10;1.30;;;;;;;;;;5102301;28;20240;-63
2023/09/25 12:05:06;;;;;;;1.50;1.40;;;;;;;;;;5100028;27;20214;-64
2023/09/25 12:07:36;;;;;;;1.95;1.35;;;;;;;;;;5100372;28;20198;-63
2023/09/25 12:10:03;;;;;;;1.35;1.27;;;;;;;;;;5101626;28;20202;-64
2023/09/25 12:12:30;;;;;;;1.73;1.33;;;;;;;;;;5096118;27;20185;-64
2023/09/25 12:14:58;;;;;;;1.30;1.30;;;;;;;;;;5095770;28;20198;-63
2023/09/25 12:17:27;;;;;;;1.40;1.30;;;;;;;;;;5104617;28;20220;-63
2023/09/25 12:19:54;;;;;;;1.67;1.30;;;;;;;;;;5093653;27;20625;-63
2023/09/25 12:22:21;;;;;;;1.73;1.30;;;;;;;;;;5095479;28;20301;-63
2023/09/25 12:24:48;;;;;;;1.33;1.20;;;;;;;;;;5102731;27;20205;-64
2023/09/25 12:27:15;;;;;;;1.30;1.20;;;;;;;;;;5102938;28;20200;-63
2023/09/25 12:29:43;;;;;;;1.90;1.33;;;;;;;;;;5103263;27;20216;-64
2023/09/25 12:32:11;;;;;;;3.05;1.15;;;;;;;;;;5101287;28;20234;-64
2023/09/25 12:34:39;;;;;;;2.85;1.33;;;;;;;;;;5094849;28;20210;-64
2023/09/25 12:37:06;;;;;;;1.50;1.33;;;;;;;;;;5094136;28;20194;-63
2023/09/25 12:39:35;;;;;;;2.17;1.55;;;;;;;;;;5107209;27;20200;-64
2023/09/25 12:42:02;;;;;;;1.50;1.35;;;;;;;;;;5091645;27;20202;-64
2023/09/25 12:44:29;;;;;;;1.42;1.33;;;;;;;;;;5100924;27;20197;-63
2023/09/25 12:46:56;;;;;;;2.00;1.35;;;;;;;;;;5096346;28;20228;-63
2023/09/25 12:49:23;;;;;;;1.95;1.23;;;;;;;;;;5099405;28;20185;-63
2023/09/25 12:51:52;;;;;;;1.77;1.60;;;;;;;;;;5095695;28;20198;-64
2023/09/25 12:54:19;;;;;;;1.45;1.35;;;;;;;;;;5096718;27;20194;-64
2023/09/25 12:56:46;;;;;;;2.20;1.42;;;;;;;;;;5103969;28;20212;-63
2023/09/25 12:59:14;;;;;;;1.77;1.30;;;;;;;;;;5098620;28;20205;-68
2023/09/25 13:01:41;;;;;;;1.98;1.50;;;;;;;;;;5097888;28;20285;-64
2023/09/25 13:04:08;;;;;;;3.17;1.60;;;;;;;;;;5096890;28;20332;-65
2023/09/25 13:06:35;;;;;;;2.25;1.50;;;;;;;;;;5098038;28;20205;-63
2023/09/25 13:09:05;;;;;;;1.58;1.48;;;;;;;;;;5102906;28;20194;-63
2023/09/25 13:11:34;;;;;;;2.25;1.63;;;;;;;;;;5097326;28;20444;-64
2023/09/25 13:14:04;;;;;;;4.40;3.80;;;;;;;;;;5095591;28;20517;-64
2023/09/25 13:16:31;;;;;;;2.05;1.80;;;;;;;;;;5098183;28;20189;-64
2023/09/25 13:18:58;;;;;;;1.60;1.50;;;;;;;;;;5091822;28;20236;-64
2023/09/25 13:21:26;;;;;;;1.73;1.60;;;;;;;;;;5094022;28;20193;-65
2023/09/25 13:23:55;;;;;;;1.85;1.50;;;;;;;;;;5101887;28;20248;-64
2023/09/25 13:26:24;;;;;;;2.30;1.80;;;;;;;;;;5094689;28;20201;-64
2023/09/25 13:28:51;;;;;;;1.65;1.55;;;;;;;;;;5096526;28;20213;-65
2023/09/25 13:31:18;;;;;;;1.70;1.50;;;;;;;;;;5096178;28;20302;-64
2023/09/25 13:33:45;;;;;;;2.72;1.92;;;;;;;;;;5099380;28;20200;-65
2023/09/25 13:36:12;;;;;;;2.30;2.10;;;;;;;;;;5095366;28;20205;-64
2023/09/25 13:38:39;;;;;;;3.17;1.48;;;;;;;;;;5101087;28;20210;-64
2023/09/25 13:41:06;;;;;;;1.65;1.42;;;;;;;;;;5097799;28;20209;-65
2023/09/25 13:43:35;;;;;;;2.15;1.50;;;;;;;;;;5102089;28;20304;-65
2023/09/25 13:46:03;;;;;;;2.47;1.50;;;;;;;;;;5095786;28;20233;-66
2023/09/25 13:48:30;;;;;;;2.13;1.88;;;;;;;;;;5091911;28;20194;-66
2023/09/25 13:50:57;;;;;;;1.50;1.40;;;;;;;;;;5100806;28;20236;-65
2023/09/25 13:53:24;;;;;;;2.28;1.55;;;;;;;;;;5100355;28;20201;-65
2023/09/25 13:55:51;;;;;;;1.38;1.20;;;;;;;;;;5096734;28;20193;-65
2023/09/25 13:58:18;;;;;;;1.30;1.20;;;;;;;;;;5101166;28;20201;-64
2023/09/25 14:00:47;;;;;;;2.10;1.40;;;;;;;;;;5099281;28;20198;-65
2023/09/25 14:03:14;;;;;;;1.48;1.38;;;;;;;;;;5101308;28;20253;-65
2023/09/25 14:05:42;;;;;;;1.63;1.52;;;;;;;;;;5096464;28;20212;-65
2023/09/25 14:08:09;;;;;;;1.88;1.60;;;;;;;;;;5100979;28;20221;-65
2023/09/25 14:10:37;;;;;;;2.65;1.40;;;;;;;;;;5097359;28;20208;-65
2023/09/25 14:13:05;;;;;;;2.03;1.60;;;;;;;;;;5091865;28;20201;-64
2023/09/25 14:15:32;;;;;;;2.78;1.30;;;;;;;;;;5099541;28;20198;-64
2023/09/25 14:18:01;;;;;;;1.67;1.45;;;;;;;;;;5099660;28;20201;-65
2023/09/25 14:20:28;;;;;;;2.92;1.50;;;;;;;;;;5102955;28;20202;-65
2023/09/25 14:22:55;;;;;;;1.52;1.42;;;;;;;;;;5100232;28;20206;-65
2023/09/25 14:25:22;;;;;;;1.77;1.60;;;;;;;;;;5099812;28;20193;-64
2023/09/25 14:27:50;;;;;;;1.70;1.60;;;;;;;;;;5105869;27;20201;-65
2023/09/25 14:30:17;;;;;;;1.75;1.50;;;;;;;;;;5106885;28;20262;-65
2023/09/25 14:32:44;;;;;;;1.90;1.42;;;;;;;;;;5093537;28;20202;-65
2023/09/25 14:35:13;;;;;;;1.75;1.40;;;;;;;;;;5101513;27;20198;-64
2023/09/25 14:37:41;;;;;;;3.20;1.42;;;;;;;;;;5104646;27;20203;-64
2023/09/25 14:40:08;;;;;;;1.95;1.63;;;;;;;;;;5100755;27;20198;-64
2023/09/25 14:42:35;;;;;;;1.60;1.45;;;;;;;;;;5101273;27;20205;-63
2023/09/25 14:45:03;;;;;;;1.90;1.67;;;;;;;;;;5103675;27;20259;-64
2023/09/25 14:47:30;;;;;;;3.22;1.67;;;;;;;;;;5105200;27;20221;-64